createdAt,value
2023-01-08T00:01:04.949Z,100443.88
2023-01-08T00:04:32.795Z,100443.83
2023-01-08T00:07:59.313Z,100448.06
2023-01-08T00:11:27.851Z,100442.52
2023-01-08T00:14:55.230Z,100437.89
2023-01-08T00:18:22.256Z,100431.78
2023-01-08T00:21:50.581Z,100426.45
2023-01-08T00:25:18.781Z,100424.66
2023-01-08T00:28:46.375Z,100419.94
2023-01-08T00:32:13.661Z,100411.54
2023-01-08T00:35:43.745Z,100405.41
2023-01-08T00:39:11.503Z,100411.59
2023-01-08T00:42:38.394Z,100411.39
2023-01-08T00:46:06.735Z,100406.17
2023-01-08T00:49:36.204Z,100403.65
2023-01-08T00:53:04.483Z,100402.42
2023-01-08T00:56:31.667Z,100401.95
2023-01-08T00:59:58.377Z,100410.05
2023-01-08T01:03:26.510Z,100417.83
2023-01-08T01:06:55.238Z,100412.70
2023-01-08T01:10:22.788Z,100407.36
2023-01-08T01:13:52.645Z,100403.08
2023-01-08T01:17:20.653Z,100396.05
2023-01-08T01:20:48.482Z,100397.73
2023-01-08T01:24:16.118Z,100390.15
2023-01-08T01:27:43.164Z,100381.63
2023-01-08T01:31:12.799Z,100372.11
2023-01-08T01:34:39.771Z,100369.02
2023-01-08T01:38:08.884Z,100371.52
2023-01-08T01:41:42.903Z,100369.70
2023-01-08T01:45:21.462Z,100370.34
2023-01-08T01:48:53.075Z,100370.15
2023-01-08T01:52:23.825Z,100369.03
2023-01-08T01:55:52.176Z,100371.09
2023-01-08T01:59:20.055Z,100366.60
2023-01-08T02:02:48.360Z,100358.14
2023-01-08T02:06:28.528Z,100361.91
2023-01-08T02:10:03.158Z,100349.55
2023-01-08T02:13:36.737Z,100346.30
2023-01-08T02:17:04.913Z,100342.02
2023-01-08T02:20:37.399Z,100334.33
2023-01-08T02:24:11.743Z,100329.37
2023-01-08T02:27:42.552Z,100322.02
2023-01-08T02:31:10.581Z,100324.86
2023-01-08T02:34:38.713Z,100313.42
2023-01-08T02:38:06.479Z,100306.02
2023-01-08T02:41:43.977Z,100307.38
2023-01-08T02:45:23.543Z,100302.98
2023-01-08T02:48:55.597Z,100301.48
2023-01-08T02:52:25.925Z,100301.14
2023-01-08T02:55:57.241Z,100300.02
2023-01-08T02:59:27.479Z,100295.94
2023-01-08T03:03:03.373Z,100285.11
2023-01-08T03:06:32.529Z,100288.43
2023-01-08T03:10:00.359Z,100283.13
2023-01-08T03:13:33.980Z,100283.25
2023-01-08T03:17:06.797Z,100293.00
2023-01-08T03:20:37.456Z,100295.13
2023-01-08T03:24:06.130Z,100298.23
2023-01-08T03:27:35.800Z,100300.46
2023-01-08T03:31:04.177Z,100292.31
2023-01-08T03:34:35.389Z,100288.46
2023-01-08T03:38:08.597Z,100280.08
2023-01-08T03:41:38.649Z,100272.40
2023-01-08T03:45:06.484Z,100266.35
2023-01-08T03:48:36.004Z,100259.10
2023-01-08T03:52:05.211Z,100256.20
2023-01-08T03:55:31.734Z,100257.52
2023-01-08T03:58:58.287Z,100266.86
2023-01-08T04:02:25.519Z,100265.88
2023-01-08T04:05:52.736Z,100260.95
2023-01-08T04:09:19.383Z,100265.40
2023-01-08T04:12:47.213Z,100268.63
2023-01-08T04:16:14.201Z,100255.08
2023-01-08T04:19:41.774Z,100247.33
2023-01-08T04:23:08.794Z,100245.67
2023-01-08T04:26:35.778Z,100234.63
2023-01-08T04:30:03.726Z,100234.34
2023-01-08T04:33:30.798Z,100232.67
2023-01-08T04:36:58.450Z,100228.44
2023-01-08T04:40:25.709Z,100217.59
2023-01-08T04:43:53.418Z,100205.55
2023-01-08T04:47:20.465Z,100193.29
2023-01-08T04:50:47.991Z,100183.39
2023-01-08T04:54:15.281Z,100177.52
2023-01-08T04:57:42.292Z,100175.18
2023-01-08T05:01:15.689Z,100185.91
2023-01-08T05:04:41.070Z,100180.77
2023-01-08T05:08:08.346Z,100183.75
2023-01-08T05:11:35.872Z,100187.05
2023-01-08T05:15:05.529Z,100179.05
2023-01-08T05:18:33.672Z,100179.99
2023-01-08T05:22:01.813Z,100176.49
2023-01-08T05:25:29.852Z,100166.09
2023-01-08T05:28:59.485Z,100171.75
2023-01-08T05:32:29.963Z,100179.16
2023-01-08T05:35:58.289Z,100158.19
2023-01-08T05:39:42.205Z,100144.89
2023-01-08T05:43:13.968Z,100123.22
2023-01-08T05:46:41.820Z,100120.05
2023-01-08T05:50:10.001Z,100112.75
2023-01-08T05:53:36.787Z,100106.30
2023-01-08T05:57:03.638Z,100116.34
2023-01-08T06:00:30.955Z,100122.56
2023-01-08T06:04:02.918Z,100120.23
2023-01-08T06:07:32.732Z,100126.71
2023-01-08T06:11:02.231Z,100137.66
2023-01-08T06:14:31.125Z,100144.65
2023-01-08T06:17:58.622Z,100134.77
2023-01-08T06:21:27.361Z,100131.39
2023-01-08T06:24:56.637Z,100134.04
2023-01-08T06:28:23.922Z,100137.15
2023-01-08T06:31:50.386Z,100133.70
2023-01-08T06:35:20.286Z,100129.58
2023-01-08T06:38:47.868Z,100132.70
2023-01-08T06:42:14.920Z,100132.76
2023-01-08T06:45:41.984Z,100139.88
2023-01-08T06:49:08.517Z,100134.02
2023-01-08T06:52:35.276Z,100131.58
2023-01-08T06:56:02.103Z,100136.64
2023-01-08T06:59:29.057Z,100130.50
2023-01-08T07:02:56.634Z,100132.05
2023-01-08T07:06:24.129Z,100135.65
2023-01-08T07:09:51.153Z,100130.64
2023-01-08T07:13:18.224Z,100138.86
2023-01-08T07:16:45.232Z,100139.77
2023-01-08T07:20:13.146Z,100129.85
2023-01-08T07:23:42.486Z,100128.30
2023-01-08T07:27:09.603Z,100120.60
2023-01-08T07:30:37.004Z,100120.55
2023-01-08T07:34:03.577Z,100109.81
2023-01-08T07:37:30.063Z,100107.14
2023-01-08T07:40:58.534Z,100105.20
2023-01-08T07:44:25.648Z,100110.11
2023-01-08T07:47:55.203Z,100111.65
2023-01-08T07:51:22.095Z,100108.57
2023-01-08T07:54:48.843Z,100111.64
2023-01-08T07:58:16.476Z,100110.76
2023-01-08T08:01:45.388Z,100100.06
2023-01-08T08:05:13.814Z,100100.86
2023-01-08T08:08:42.315Z,100094.79
2023-01-08T08:12:10.134Z,100090.75
2023-01-08T08:15:40.228Z,100090.11
2023-01-08T08:19:08.512Z,100081.89
2023-01-08T08:22:36.209Z,100080.55
2023-01-08T08:26:05.651Z,100066.05
2023-01-08T08:29:32.156Z,100065.58
2023-01-08T08:33:02.025Z,100069.91
2023-01-08T08:36:33.304Z,100072.83
2023-01-08T08:39:59.875Z,100077.98
2023-01-08T08:43:27.651Z,100082.95
2023-01-08T08:46:54.790Z,100084.24
2023-01-08T08:50:22.841Z,100081.60
2023-01-08T08:53:49.799Z,100078.48
2023-01-08T08:57:16.420Z,100067.98
2023-01-08T09:00:46.634Z,100074.23
2023-01-08T09:04:13.453Z,100072.59
2023-01-08T09:07:42.200Z,100062.41
2023-01-08T09:11:08.970Z,100057.73
2023-01-08T09:14:36.328Z,100058.75
2023-01-08T09:18:03.122Z,100059.67
2023-01-08T09:21:30.693Z,100050.77
2023-01-08T09:24:57.608Z,100051.73
2023-01-08T09:28:24.798Z,100043.85
2023-01-08T09:31:51.903Z,100037.79
2023-01-08T09:35:22.152Z,100033.63
2023-01-08T09:38:49.415Z,100040.66
2023-01-08T09:42:17.317Z,100033.08
2023-01-08T09:45:47.554Z,100029.02
2023-01-08T09:49:22.541Z,100026.78
2023-01-08T09:52:50.766Z,100033.92
2023-01-08T09:56:21.254Z,100030.13
2023-01-08T09:59:49.805Z,100031.25
2023-01-08T10:03:17.324Z,100029.67
2023-01-08T10:06:48.093Z,100017.09
2023-01-08T10:10:22.091Z,100017.20
2023-01-08T10:13:55.435Z,100018.77
2023-01-08T10:17:28.747Z,100018.20
2023-01-08T10:20:55.258Z,100021.28
2023-01-08T10:24:34.571Z,100019.48
2023-01-08T10:28:03.398Z,100017.52
2023-01-08T10:31:30.794Z,100010.20
2023-01-08T10:35:00.663Z,100010.02
2023-01-08T10:38:35.896Z,100001.03
2023-01-08T10:42:08.522Z,100003.48
2023-01-08T10:45:36.122Z,99998.48
2023-01-08T10:49:08.067Z,99999.77
2023-01-08T10:52:39.176Z,99991.10
2023-01-08T10:56:19.048Z,99973.24
2023-01-08T10:59:46.108Z,99968.64
2023-01-08T11:03:25.013Z,99955.81
2023-01-08T11:06:52.115Z,99956.65
2023-01-08T11:10:28.993Z,99953.70
2023-01-08T11:14:02.477Z,99949.86
2023-01-08T11:17:28.779Z,99943.70
2023-01-08T11:21:08.044Z,99934.02
2023-01-08T11:24:37.214Z,99936.33
2023-01-08T11:28:06.245Z,99925.58
2023-01-08T11:31:40.971Z,99923.33
2023-01-08T11:35:14.126Z,99919.58
2023-01-08T11:38:39.291Z,99916.49
2023-01-08T11:42:22.113Z,99906.34
2023-01-08T11:46:03.092Z,99913.02
2023-01-08T11:49:57.052Z,99920.45
2023-01-08T11:53:30.340Z,99911.46
2023-01-08T11:57:09.948Z,99903.42
2023-01-08T12:00:46.073Z,99908.59
2023-01-08T12:04:38.472Z,99910.64
2023-01-08T12:08:14.488Z,99898.98
2023-01-08T12:11:48.430Z,99895.09
2023-01-08T12:15:17.935Z,99900.22
2023-01-08T12:19:04.213Z,99893.75
2023-01-08T12:22:43.611Z,99884.77
2023-01-08T12:26:27.657Z,99882.56
2023-01-08T12:30:09.719Z,99883.67
2023-01-08T12:33:43.759Z,99877.63
2023-01-08T12:37:17.021Z,99874.51
2023-01-08T12:40:49.054Z,99876.02
2023-01-08T12:44:23.326Z,99874.46
2023-01-08T12:47:55.356Z,99858.96
2023-01-08T12:51:33.316Z,99850.02
2023-01-08T12:55:24.982Z,99844.14
2023-01-08T12:59:01.063Z,99836.77
2023-01-08T13:02:39.118Z,99832.43
2023-01-08T13:06:13.660Z,99825.52
2023-01-08T13:09:43.702Z,99823.45
2023-01-08T13:13:29.675Z,99816.77
2023-01-08T13:17:08.251Z,99804.69
2023-01-08T13:20:36.171Z,99790.37
2023-01-08T13:24:27.150Z,99792.69
2023-01-08T13:27:56.744Z,99793.56
2023-01-08T13:31:31.100Z,99790.17
2023-01-08T13:35:21.848Z,99789.03
2023-01-08T13:39:00.821Z,99785.43
2023-01-08T13:42:29.486Z,99788.34
2023-01-08T13:46:15.306Z,99782.52
2023-01-08T13:49:52.777Z,99787.84
2023-01-08T13:53:22.605Z,99789.11
2023-01-08T13:56:55.371Z,99797.54
2023-01-08T14:00:31.558Z,99814.45
2023-01-08T14:03:59.517Z,99815.77
2023-01-08T14:07:27.904Z,99817.90
2023-01-08T14:10:55.482Z,99815.41
2023-01-08T14:14:24.520Z,99820.46
2023-01-08T14:17:51.662Z,99823.48
2023-01-08T14:21:22.394Z,99819.31
2023-01-08T14:24:55.480Z,99816.06
2023-01-08T14:28:25.930Z,99806.30
2023-01-08T14:31:54.529Z,99800.19
2023-01-08T14:35:24.848Z,99800.10
2023-01-08T14:38:52.661Z,99795.04
2023-01-08T14:42:45.939Z,99793.21
2023-01-08T14:46:20.759Z,99780.35
2023-01-08T14:49:54.558Z,99776.88
2023-01-08T14:53:29.119Z,99775.96
2023-01-08T14:56:59.530Z,99774.12
2023-01-08T15:00:30.535Z,99768.04
2023-01-08T15:04:10.821Z,99765.31
2023-01-08T15:07:37.979Z,99769.97
2023-01-08T15:11:07.010Z,99770.94
2023-01-08T15:14:37.260Z,99773.59
2023-01-08T15:18:06.228Z,99773.40
2023-01-08T15:21:33.579Z,99760.52
2023-01-08T15:25:04.520Z,99749.54
2023-01-08T15:28:33.475Z,99742.17
2023-01-08T15:32:12.749Z,99751.03
2023-01-08T15:35:40.736Z,99756.45
2023-01-08T15:39:08.093Z,99757.24
2023-01-08T15:42:53.279Z,99759.16
2023-01-08T15:46:20.436Z,99758.27
2023-01-08T15:49:47.504Z,99751.65
2023-01-08T15:53:18.325Z,99750.36
2023-01-08T15:56:49.994Z,99746.23
2023-01-08T16:00:20.021Z,99753.92
2023-01-08T16:03:47.526Z,99755.20
2023-01-08T16:07:13.930Z,99753.17
2023-01-08T16:10:43.084Z,99762.77
2023-01-08T16:14:11.911Z,99754.27
2023-01-08T16:17:39.628Z,99746.84
2023-01-08T16:21:07.213Z,99750.66
2023-01-08T16:24:34.889Z,99751.84
2023-01-08T16:28:03.320Z,99740.66
2023-01-08T16:31:30.767Z,99730.94
2023-01-08T16:34:58.185Z,99719.84
2023-01-08T16:38:27.388Z,99712.00
2023-01-08T16:41:55.471Z,99720.69
2023-01-08T16:45:22.522Z,99721.67
2023-01-08T16:48:50.928Z,99722.59
2023-01-08T16:52:18.663Z,99715.00
2023-01-08T16:55:46.066Z,99711.83
2023-01-08T16:59:30.957Z,99712.75
2023-01-08T17:03:02.479Z,99693.58
2023-01-08T17:06:29.823Z,99697.57
2023-01-08T17:09:57.438Z,99697.46
2023-01-08T17:13:25.547Z,99700.95
2023-01-08T17:16:52.137Z,99696.91
2023-01-08T17:20:20.212Z,99682.89
2023-01-08T17:23:48.540Z,99686.11
2023-01-08T17:27:16.128Z,99688.00
2023-01-08T17:30:43.840Z,99688.99
2023-01-08T17:34:13.606Z,99696.40
2023-01-08T17:37:40.752Z,99712.90
2023-01-08T17:41:10.323Z,99709.86
2023-01-08T17:44:37.231Z,99705.92
2023-01-08T17:48:03.993Z,99707.30
2023-01-08T17:51:30.489Z,99701.84
2023-01-08T17:54:57.169Z,99704.84
2023-01-08T17:58:23.715Z,99699.08
2023-01-08T18:01:54.282Z,99693.75
2023-01-08T18:05:22.257Z,99694.16
2023-01-08T18:08:48.585Z,99701.66
2023-01-08T18:12:14.964Z,99699.77
2023-01-08T18:15:41.459Z,99696.32
2023-01-08T18:19:08.841Z,99688.81
2023-01-08T18:22:36.045Z,99682.89
2023-01-08T18:26:12.413Z,99683.06
2023-01-08T18:29:41.467Z,99683.39
2023-01-08T18:33:08.568Z,99684.12
2023-01-08T18:36:37.316Z,99684.45
2023-01-08T18:40:08.935Z,99676.95
2023-01-08T18:43:41.846Z,99677.16
2023-01-08T18:47:12.742Z,99675.08
2023-01-08T18:50:43.968Z,99679.78
2023-01-08T18:54:11.850Z,99689.62
2023-01-08T18:57:50.355Z,99698.26
2023-01-08T19:01:19.200Z,99701.89
2023-01-08T19:04:45.687Z,99695.39
2023-01-08T19:08:15.311Z,99687.27
2023-01-08T19:11:45.257Z,99687.08
2023-01-08T19:15:16.551Z,99688.11
2023-01-08T19:18:44.870Z,99681.95
2023-01-08T19:22:12.408Z,99673.48
2023-01-08T19:25:41.760Z,99676.18
2023-01-08T19:29:11.684Z,99685.20
2023-01-08T19:32:40.105Z,99685.71
2023-01-08T19:36:12.886Z,99682.47
2023-01-08T19:39:44.921Z,99682.06
2023-01-08T19:43:31.380Z,99668.06
2023-01-08T19:47:01.086Z,99669.50
2023-01-08T19:50:37.159Z,99665.70
2023-01-08T19:54:04.761Z,99664.16
2023-01-08T19:57:32.568Z,99662.20
2023-01-08T20:01:06.770Z,99666.71
2023-01-08T20:04:36.456Z,99664.58
2023-01-08T20:08:04.575Z,99657.66
2023-01-08T20:11:38.031Z,99657.02
2023-01-08T20:15:08.300Z,99655.96
2023-01-08T20:18:37.604Z,99653.91
2023-01-08T20:22:05.891Z,99643.89
2023-01-08T20:25:37.396Z,99631.67
2023-01-08T20:29:06.060Z,99634.33
2023-01-08T20:32:35.045Z,99626.23
2023-01-08T20:36:02.434Z,99624.16
2023-01-08T20:39:29.892Z,99628.98
2023-01-08T20:42:57.349Z,99634.14
2023-01-08T20:46:30.001Z,99627.23
2023-01-08T20:49:58.411Z,99609.88
2023-01-08T20:53:25.496Z,99597.20
2023-01-08T20:56:57.724Z,99593.02
2023-01-08T21:00:26.237Z,99588.52
2023-01-08T21:03:56.127Z,99583.39
2023-01-08T21:07:24.058Z,99573.19
2023-01-08T21:11:00.279Z,99568.94
2023-01-08T21:14:27.997Z,99562.45
2023-01-08T21:17:54.661Z,99556.62
2023-01-08T21:21:24.382Z,99551.33
2023-01-08T21:24:53.508Z,99544.98
2023-01-08T21:28:20.870Z,99531.77
2023-01-08T21:31:49.601Z,99531.23
2023-01-08T21:35:16.891Z,99528.84
2023-01-08T21:38:47.084Z,99529.44
2023-01-08T21:42:32.079Z,99516.95
2023-01-08T21:46:07.172Z,99509.56
2023-01-08T21:49:41.987Z,99506.42
2023-01-08T21:53:27.866Z,99506.06
2023-01-08T21:56:54.744Z,99520.11
2023-01-08T22:00:24.668Z,99521.91
2023-01-08T22:03:51.797Z,99504.71
2023-01-08T22:07:21.032Z,99497.71
2023-01-08T22:10:47.806Z,99491.48
2023-01-08T22:14:14.648Z,99480.09
2023-01-08T22:17:41.987Z,99475.23
2023-01-08T22:21:11.560Z,99477.06
2023-01-08T22:24:38.784Z,99484.74
2023-01-08T22:28:05.354Z,99503.31
2023-01-08T22:31:36.723Z,99501.20
2023-01-08T22:35:03.811Z,99502.13
2023-01-08T22:38:30.538Z,99491.64
2023-01-08T22:41:57.326Z,99479.71
2023-01-08T22:45:24.315Z,99476.36
2023-01-08T22:48:51.154Z,99475.81
2023-01-08T22:52:19.531Z,99469.81
2023-01-08T22:55:47.170Z,99470.59
2023-01-08T22:59:13.509Z,99466.20
2023-01-08T23:02:40.718Z,99457.38
2023-01-08T23:06:12.722Z,99443.52
2023-01-08T23:09:39.105Z,99445.11
2023-01-08T23:13:05.989Z,99438.95
2023-01-08T23:16:33.109Z,99445.00
2023-01-08T23:20:02.060Z,99458.09
2023-01-08T23:23:30.941Z,99467.91
2023-01-08T23:26:57.971Z,99462.84
2023-01-08T23:30:24.843Z,99471.38
2023-01-08T23:33:51.394Z,99457.86
2023-01-08T23:37:18.004Z,99459.59
2023-01-08T23:40:46.757Z,99455.60
2023-01-08T23:44:15.403Z,99445.53
2023-01-08T23:47:42.225Z,99433.19
2023-01-08T23:51:09.308Z,99420.76
2023-01-08T23:54:36.079Z,99422.23
2023-01-08T23:58:02.711Z,99417.13
